createdAt,value
2023-06-11T00:00:55.133Z,5.43
2023-06-11T00:03:22.162Z,7.18
2023-06-11T00:05:49.476Z,7.18
2023-06-11T00:08:16.351Z,6.35
2023-06-11T00:10:43.222Z,7.05
2023-06-11T00:13:10.290Z,6.57
2023-06-11T00:15:37.268Z,6.38
2023-06-11T00:18:06.208Z,6.95
2023-06-11T00:20:34.018Z,7.30
2023-06-11T00:23:00.972Z,6.60
2023-06-11T00:25:27.819Z,6.68
2023-06-11T00:27:54.694Z,6.85
2023-06-11T00:30:21.589Z,7.07
2023-06-11T00:32:48.524Z,6.28
2023-06-11T00:35:15.576Z,6.75
2023-06-11T00:37:43.204Z,6.60
2023-06-11T00:40:10.536Z,7.15
2023-06-11T00:42:38.280Z,7.00
2023-06-11T00:45:07.031Z,7.75
2023-06-11T00:47:35.148Z,6.82
2023-06-11T00:50:05.137Z,6.53
2023-06-11T00:52:32.176Z,7.03
2023-06-11T00:54:59.991Z,6.43
2023-06-11T00:57:27.268Z,7.57
2023-06-11T00:59:56.738Z,8.02
2023-06-11T01:02:44.760Z,8.20
2023-06-11T01:05:18.751Z,8.07
2023-06-11T01:07:51.467Z,7.72
2023-06-11T01:10:24.189Z,8.20
2023-06-11T01:12:54.027Z,7.68
2023-06-11T01:15:21.084Z,8.05
2023-06-11T01:17:56.075Z,7.75
2023-06-11T01:20:36.151Z,9.15
2023-06-11T01:23:17.614Z,7.38
2023-06-11T01:26:00.500Z,8.25
2023-06-11T01:28:32.317Z,9.43
2023-06-11T01:31:03.707Z,9.85
2023-06-11T01:33:36.627Z,8.07
2023-06-11T01:36:06.972Z,7.95
2023-06-11T01:38:43.209Z,9.15
2023-06-11T01:41:16.434Z,8.40
2023-06-11T01:43:44.180Z,8.18
2023-06-11T01:46:11.170Z,10.13
2023-06-11T01:48:38.190Z,8.68
2023-06-11T01:51:05.084Z,7.85
2023-06-11T01:53:32.159Z,8.80
2023-06-11T01:55:59.343Z,8.48
2023-06-11T01:58:26.271Z,8.80
2023-06-11T02:00:54.403Z,8.85
2023-06-11T02:03:21.551Z,10.23
2023-06-11T02:05:48.880Z,10.35
2023-06-11T02:08:16.584Z,8.80
2023-06-11T02:10:45.060Z,9.70
2023-06-11T02:13:11.893Z,10.82
2023-06-11T02:15:38.823Z,11.05
2023-06-11T02:18:07.020Z,8.93
2023-06-11T02:20:34.231Z,9.65
2023-06-11T02:23:02.621Z,9.48
2023-06-11T02:25:29.434Z,9.27
2023-06-11T02:27:56.301Z,8.70
2023-06-11T02:30:24.129Z,8.88
2023-06-11T02:32:50.980Z,9.65
2023-06-11T02:35:18.503Z,9.73
2023-06-11T02:37:45.382Z,8.93
2023-06-11T02:40:12.734Z,9.43
2023-06-11T02:42:39.678Z,8.43
2023-06-11T02:45:07.119Z,8.75
2023-06-11T02:47:33.984Z,9.57
2023-06-11T02:50:00.865Z,9.52
2023-06-11T02:52:27.723Z,9.38
2023-06-11T02:54:54.520Z,7.80
2023-06-11T02:57:21.318Z,9.48
2023-06-11T02:59:48.177Z,10.63
2023-06-11T03:02:15.674Z,9.40
2023-06-11T03:04:42.899Z,10.30
2023-06-11T03:07:10.187Z,10.43
2023-06-11T03:09:37.194Z,8.95
2023-06-11T03:12:04.350Z,8.85
2023-06-11T03:14:32.996Z,10.90
2023-06-11T03:16:59.999Z,10.57
2023-06-11T03:19:26.888Z,10.32
2023-06-11T03:21:56.429Z,11.02
2023-06-11T03:24:23.531Z,11.05
2023-06-11T03:26:55.464Z,12.93
2023-06-11T03:29:22.333Z,12.40
2023-06-11T03:31:54.801Z,11.15
2023-06-11T03:34:23.339Z,10.88
2023-06-11T03:36:51.575Z,10.32
2023-06-11T03:39:18.550Z,11.68
2023-06-11T03:41:48.627Z,10.48
2023-06-11T03:44:16.730Z,10.05
2023-06-11T03:46:43.897Z,10.15
2023-06-11T03:49:10.821Z,10.85
2023-06-11T03:51:38.045Z,11.00
2023-06-11T03:54:05.119Z,10.63
2023-06-11T03:56:31.983Z,12.15
2023-06-11T03:58:58.814Z,9.98
2023-06-11T04:01:25.642Z,10.93
2023-06-11T04:03:54.173Z,10.73
2023-06-11T04:06:21.859Z,11.00
2023-06-11T04:08:48.775Z,10.10
2023-06-11T04:11:15.781Z,11.95
2023-06-11T04:13:42.680Z,10.50
2023-06-11T04:16:09.504Z,9.32
2023-06-11T04:18:36.574Z,10.05
2023-06-11T04:21:03.471Z,12.05
2023-06-11T04:23:31.563Z,10.60
2023-06-11T04:25:58.792Z,9.13
2023-06-11T04:28:27.270Z,9.45
2023-06-11T04:30:58.431Z,10.27
2023-06-11T04:33:33.523Z,11.45
2023-06-11T04:36:06.341Z,10.13
2023-06-11T04:38:34.198Z,10.00
2023-06-11T04:41:01.370Z,9.82
2023-06-11T04:43:29.032Z,11.35
2023-06-11T04:45:59.132Z,8.63
2023-06-11T04:48:32.940Z,11.50
2023-06-11T04:51:01.820Z,9.48
2023-06-11T04:53:32.930Z,9.55
2023-06-11T04:56:03.098Z,8.38
2023-06-11T04:58:34.902Z,7.68
2023-06-11T05:01:01.902Z,6.80
2023-06-11T05:03:30.466Z,8.18
2023-06-11T05:05:59.144Z,6.95
2023-06-11T05:08:29.153Z,7.72
2023-06-11T05:10:58.803Z,6.65
2023-06-11T05:13:28.010Z,7.05
2023-06-11T05:16:02.770Z,6.00
2023-06-11T05:18:30.525Z,5.95
2023-06-11T05:21:00.661Z,7.20
2023-06-11T05:23:32.502Z,5.97
2023-06-11T05:26:09.989Z,6.13
2023-06-11T05:28:40.117Z,6.15
2023-06-11T05:31:10.294Z,6.28
2023-06-11T05:33:38.126Z,5.88
2023-06-11T05:36:06.130Z,5.60
2023-06-11T05:38:33.282Z,5.75
2023-06-11T05:41:02.524Z,6.13
2023-06-11T05:43:29.529Z,7.47
2023-06-11T05:45:57.239Z,5.38
2023-06-11T05:48:28.086Z,5.72
2023-06-11T05:50:55.100Z,5.65
2023-06-11T05:53:23.185Z,5.50
2023-06-11T05:55:51.704Z,5.68
2023-06-11T05:58:19.927Z,5.95
2023-06-11T06:00:46.886Z,6.30
2023-06-11T06:03:14.004Z,7.30
2023-06-11T06:05:42.321Z,5.95
2023-06-11T06:08:09.287Z,5.95
2023-06-11T06:10:36.232Z,6.75
2023-06-11T06:13:04.146Z,6.10
2023-06-11T06:15:31.191Z,6.80
2023-06-11T06:17:59.183Z,6.50
2023-06-11T06:20:35.074Z,5.65
2023-06-11T06:23:01.966Z,6.20
2023-06-11T06:25:29.082Z,6.57
2023-06-11T06:27:57.222Z,6.28
2023-06-11T06:30:24.448Z,6.15
2023-06-11T06:32:51.585Z,6.95
2023-06-11T06:35:19.816Z,8.70
2023-06-11T06:37:47.108Z,6.60
2023-06-11T06:40:15.078Z,6.43
2023-06-11T06:42:42.307Z,6.30
2023-06-11T06:45:16.106Z,6.90
2023-06-11T06:47:43.400Z,7.07
2023-06-11T06:50:11.186Z,5.35
2023-06-11T06:52:38.589Z,6.57
2023-06-11T06:55:06.041Z,6.65
2023-06-11T06:57:33.311Z,5.32
2023-06-11T07:00:01.564Z,7.00
2023-06-11T07:02:29.508Z,5.15
2023-06-11T07:04:56.406Z,6.15
2023-06-11T07:07:25.610Z,5.53
2023-06-11T07:09:53.349Z,5.60
2023-06-11T07:12:21.675Z,6.15
2023-06-11T07:14:49.642Z,5.25
2023-06-11T07:17:16.699Z,5.22
2023-06-11T07:19:43.689Z,4.65
2023-06-11T07:22:10.732Z,5.57
2023-06-11T07:24:39.073Z,4.32
2023-06-11T07:27:07.038Z,4.07
2023-06-11T07:29:34.296Z,4.03
2023-06-11T07:32:01.333Z,3.92
2023-06-11T07:34:28.477Z,3.83
2023-06-11T07:36:55.710Z,5.32
2023-06-11T07:39:22.705Z,4.55
2023-06-11T07:41:49.685Z,4.30
2023-06-11T07:44:16.667Z,4.32
2023-06-11T07:46:45.912Z,3.70
2023-06-11T07:49:12.949Z,4.28
2023-06-11T07:51:39.857Z,3.35
2023-06-11T07:54:09.640Z,4.78
2023-06-11T07:56:37.044Z,3.67
2023-06-11T07:59:03.993Z,4.18
2023-06-11T08:01:30.973Z,3.50
2023-06-11T08:03:58.047Z,3.60
2023-06-11T08:06:24.899Z,3.30
2023-06-11T08:08:51.898Z,3.30
2023-06-11T08:11:18.808Z,3.53
2023-06-11T08:13:45.826Z,4.28
2023-06-11T08:16:12.875Z,3.33
2023-06-11T08:18:39.750Z,3.63
2023-06-11T08:21:06.760Z,3.03
2023-06-11T08:23:37.033Z,3.38
2023-06-11T08:26:03.996Z,3.50
2023-06-11T08:28:31.194Z,3.45
2023-06-11T08:30:58.177Z,3.72
2023-06-11T08:33:25.132Z,2.60
2023-06-11T08:35:52.424Z,3.30
2023-06-11T08:38:19.265Z,2.80
2023-06-11T08:40:46.642Z,4.45
2023-06-11T08:43:13.550Z,3.38
2023-06-11T08:45:40.955Z,3.40
2023-06-11T08:48:10.500Z,3.03
2023-06-11T08:50:37.476Z,3.42
2023-06-11T08:53:05.848Z,4.25
2023-06-11T08:55:32.838Z,3.63
2023-06-11T08:57:59.705Z,4.80
2023-06-11T09:00:26.715Z,3.55
2023-06-11T09:02:55.014Z,3.30
2023-06-11T09:05:22.507Z,4.70
2023-06-11T09:07:53.489Z,3.33
2023-06-11T09:10:22.093Z,4.60
2023-06-11T09:12:49.604Z,3.67
2023-06-11T09:15:18.074Z,3.30
2023-06-11T09:17:47.886Z,3.30
2023-06-11T09:20:16.685Z,3.83
2023-06-11T09:22:45.285Z,4.38
2023-06-11T09:25:20.364Z,5.70
2023-06-11T09:27:48.809Z,3.40
2023-06-11T09:30:20.289Z,3.28
2023-06-11T09:32:49.675Z,4.35
2023-06-11T09:35:21.307Z,5.22
2023-06-11T09:37:51.428Z,3.72
2023-06-11T09:40:24.385Z,3.60
2023-06-11T09:42:51.848Z,3.45
2023-06-11T09:45:20.776Z,3.40
2023-06-11T09:47:48.976Z,3.75
2023-06-11T09:50:17.694Z,4.15
2023-06-11T09:52:46.288Z,3.85
2023-06-11T09:55:14.208Z,3.22
2023-06-11T09:57:43.435Z,3.83
2023-06-11T10:00:14.550Z,3.60
2023-06-11T10:02:43.396Z,3.75
2023-06-11T10:05:11.814Z,4.13
2023-06-11T10:07:59.889Z,3.58
2023-06-11T10:10:28.239Z,3.50
2023-06-11T10:12:55.501Z,3.60
2023-06-11T10:15:24.670Z,5.90
2023-06-11T10:17:53.232Z,6.22
2023-06-11T10:20:32.331Z,4.25
2023-06-11T10:23:12.184Z,4.70
2023-06-11T10:25:41.425Z,4.13
2023-06-11T10:28:10.693Z,6.03
2023-06-11T10:30:37.590Z,3.78
2023-06-11T10:33:04.711Z,5.03
2023-06-11T10:35:33.934Z,3.90
2023-06-11T10:38:12.078Z,5.28
2023-06-11T10:40:39.771Z,6.68
2023-06-11T10:43:22.448Z,4.63
2023-06-11T10:46:03.456Z,4.05
2023-06-11T10:48:31.876Z,5.22
2023-06-11T10:51:09.191Z,3.80
2023-06-11T10:53:41.378Z,3.42
2023-06-11T10:56:09.526Z,4.93
2023-06-11T10:58:36.702Z,3.50
2023-06-11T11:01:08.066Z,5.65
2023-06-11T11:03:36.266Z,3.38
2023-06-11T11:06:03.491Z,3.80
2023-06-11T11:08:30.782Z,3.63
2023-06-11T11:11:00.869Z,4.93
2023-06-11T11:13:29.525Z,4.65
2023-06-11T11:15:56.562Z,3.08
2023-06-11T11:18:23.683Z,3.75
2023-06-11T11:20:55.808Z,3.97
2023-06-11T11:23:25.286Z,4.20
2023-06-11T11:25:52.692Z,3.30
2023-06-11T11:28:19.505Z,2.85
2023-06-11T11:30:46.822Z,3.67
2023-06-11T11:33:13.724Z,3.30
2023-06-11T11:35:49.426Z,5.65
2023-06-11T11:38:16.354Z,3.38
2023-06-11T11:40:43.243Z,3.28
2023-06-11T11:43:14.343Z,3.47
2023-06-11T11:45:47.363Z,4.43
2023-06-11T11:48:16.785Z,3.45
2023-06-11T11:50:46.353Z,3.10
2023-06-11T11:53:19.820Z,4.03
2023-06-11T11:56:04.540Z,3.35
2023-06-11T11:58:41.039Z,3.90
2023-06-11T12:01:10.722Z,3.17
2023-06-11T12:03:38.622Z,4.47
2023-06-11T12:06:08.009Z,3.35
2023-06-11T12:08:36.234Z,3.38
2023-06-11T12:11:08.456Z,3.83
2023-06-11T12:13:36.172Z,6.07
2023-06-11T12:16:04.933Z,4.55
2023-06-11T12:18:35.188Z,3.30
2023-06-11T12:21:02.168Z,4.28
2023-06-11T12:23:29.409Z,3.67
2023-06-11T12:25:56.234Z,3.30
2023-06-11T12:28:23.021Z,2.90
2023-06-11T12:30:50.005Z,3.08
2023-06-11T12:33:17.225Z,3.15
2023-06-11T12:35:44.564Z,4.20
2023-06-11T12:38:11.729Z,5.15
2023-06-11T12:40:38.553Z,3.55
2023-06-11T12:43:05.419Z,3.90
2023-06-11T12:45:36.673Z,4.20
2023-06-11T12:48:04.292Z,3.40
2023-06-11T12:50:31.160Z,3.85
2023-06-11T12:52:58.771Z,4.28
2023-06-11T12:55:25.781Z,2.88
2023-06-11T12:57:52.751Z,2.70
2023-06-11T13:00:19.931Z,3.83
2023-06-11T13:02:47.033Z,3.47
2023-06-11T13:05:14.016Z,3.63
2023-06-11T13:07:41.049Z,4.50
2023-06-11T13:10:09.066Z,3.35
2023-06-11T13:12:36.373Z,3.67
2023-06-11T13:15:03.319Z,3.10
2023-06-11T13:17:30.210Z,4.00
2023-06-11T13:19:57.276Z,3.42
2023-06-11T13:22:24.344Z,4.65
2023-06-11T13:24:51.245Z,3.35
2023-06-11T13:27:18.231Z,3.30
2023-06-11T13:29:45.182Z,4.43
2023-06-11T13:32:12.281Z,3.22
2023-06-11T13:34:39.465Z,4.57
2023-06-11T13:37:06.596Z,4.18
2023-06-11T13:39:36.571Z,3.70
2023-06-11T13:42:03.733Z,4.57
2023-06-11T13:44:30.604Z,3.63
2023-06-11T13:46:57.666Z,4.18
2023-06-11T13:49:27.362Z,3.70
2023-06-11T13:51:55.261Z,4.80
2023-06-11T13:54:22.393Z,4.93
2023-06-11T13:56:49.210Z,3.95
2023-06-11T13:59:16.073Z,4.20
2023-06-11T14:01:43.248Z,4.38
2023-06-11T14:04:10.844Z,3.28
2023-06-11T14:06:37.933Z,3.70
2023-06-11T14:09:05.395Z,3.72
2023-06-11T14:11:32.806Z,4.90
2023-06-11T14:14:00.301Z,3.92
2023-06-11T14:16:28.225Z,4.43
2023-06-11T14:18:55.611Z,4.53
2023-06-11T14:21:22.457Z,4.15
2023-06-11T14:23:49.344Z,3.53
2023-06-11T14:26:16.234Z,3.97
2023-06-11T14:28:43.106Z,3.45
2023-06-11T14:31:09.957Z,3.63
2023-06-11T14:33:36.777Z,3.47
2023-06-11T14:36:06.211Z,4.65
2023-06-11T14:38:36.227Z,3.40
2023-06-11T14:41:03.326Z,4.40
2023-06-11T14:43:30.142Z,3.75
2023-06-11T14:45:57.077Z,3.50
2023-06-11T14:48:23.935Z,3.47
2023-06-11T14:50:50.856Z,3.92
2023-06-11T14:53:18.193Z,4.53
2023-06-11T14:55:45.113Z,4.28
2023-06-11T14:58:11.988Z,4.22
2023-06-11T15:00:38.782Z,3.15
2023-06-11T15:03:09.097Z,3.63
2023-06-11T15:05:39.195Z,5.22
2023-06-11T15:08:06.152Z,3.33
2023-06-11T15:10:32.984Z,3.50
2023-06-11T15:12:59.782Z,5.07
2023-06-11T15:15:26.595Z,3.53
2023-06-11T15:17:53.476Z,3.22
2023-06-11T15:20:20.375Z,3.95
2023-06-11T15:22:47.224Z,5.07
2023-06-11T15:25:14.035Z,3.70
2023-06-11T15:27:41.537Z,3.97
2023-06-11T15:30:09.303Z,3.65
2023-06-11T15:32:36.475Z,2.92
2023-06-11T15:35:03.461Z,4.60
2023-06-11T15:37:30.311Z,3.45
2023-06-11T15:39:57.151Z,4.10
2023-06-11T15:42:24.250Z,4.35
2023-06-11T15:44:51.106Z,5.20
2023-06-11T15:47:18.440Z,3.78
2023-06-11T15:49:45.485Z,4.97
2023-06-11T15:52:12.362Z,3.75
2023-06-11T15:54:39.213Z,5.57
2023-06-11T15:57:07.386Z,4.30
2023-06-11T15:59:34.577Z,4.35
2023-06-11T16:02:01.615Z,4.72
2023-06-11T16:04:31.052Z,5.28
2023-06-11T16:06:59.904Z,7.05
2023-06-11T16:09:27.478Z,5.80
2023-06-11T16:11:54.752Z,5.38
2023-06-11T16:14:21.658Z,5.53
2023-06-11T16:16:49.061Z,4.50
2023-06-11T16:19:16.170Z,6.53
2023-06-11T16:21:43.110Z,6.70
2023-06-11T16:24:09.948Z,4.18
2023-06-11T16:26:37.142Z,4.32
2023-06-11T16:29:04.322Z,3.80
2023-06-11T16:31:31.476Z,4.32
2023-06-11T16:34:00.197Z,5.78
2023-06-11T16:36:29.281Z,4.22
2023-06-11T16:39:01.296Z,6.32
2023-06-11T16:41:33.350Z,4.00
2023-06-11T16:44:00.276Z,5.68
2023-06-11T16:46:27.180Z,5.65
2023-06-11T16:48:54.223Z,3.15
2023-06-11T16:51:21.250Z,3.80
2023-06-11T16:53:48.053Z,3.60
2023-06-11T16:56:15.320Z,5.82
2023-06-11T16:58:42.418Z,3.72
2023-06-11T17:01:09.334Z,3.97
2023-06-11T17:03:36.316Z,5.05
2023-06-11T17:06:03.740Z,3.65
2023-06-11T17:08:31.045Z,5.47
2023-06-11T17:10:57.949Z,3.55
2023-06-11T17:13:24.714Z,3.70
2023-06-11T17:15:51.624Z,5.45
2023-06-11T17:18:18.467Z,3.38
2023-06-11T17:20:47.393Z,5.03
2023-06-11T17:23:16.905Z,4.30
2023-06-11T17:25:45.148Z,4.38
2023-06-11T17:28:12.574Z,3.22
2023-06-11T17:30:39.405Z,4.18
2023-06-11T17:33:06.447Z,3.13
2023-06-11T17:35:33.241Z,4.70
2023-06-11T17:38:00.202Z,4.05
2023-06-11T17:40:28.717Z,3.97
2023-06-11T17:42:58.774Z,3.30
2023-06-11T17:45:29.726Z,4.68
2023-06-11T17:47:57.256Z,3.58
2023-06-11T17:50:25.108Z,2.75
2023-06-11T17:52:52.049Z,5.85
2023-06-11T17:55:18.962Z,3.80
2023-06-11T17:57:47.673Z,4.13
2023-06-11T18:00:16.912Z,3.03
2023-06-11T18:02:44.775Z,3.55
2023-06-11T18:05:13.164Z,3.15
2023-06-11T18:07:47.000Z,3.00
2023-06-11T18:10:15.836Z,3.38
2023-06-11T18:12:44.274Z,3.70
2023-06-11T18:15:31.157Z,4.10
2023-06-11T18:18:00.012Z,4.72
2023-06-11T18:20:28.515Z,4.53
2023-06-11T18:22:55.878Z,3.33
2023-06-11T18:25:22.840Z,3.95
2023-06-11T18:27:49.771Z,3.38
2023-06-11T18:30:16.631Z,3.85
2023-06-11T18:32:43.605Z,4.70
2023-06-11T18:35:10.754Z,4.05
2023-06-11T18:37:37.883Z,7.15
2023-06-11T18:40:06.114Z,4.45
2023-06-11T18:42:33.095Z,5.05
2023-06-11T18:45:00.029Z,3.20
2023-06-11T18:47:26.957Z,3.60
2023-06-11T18:49:53.988Z,2.95
2023-06-11T18:52:20.988Z,7.63
2023-06-11T18:54:48.416Z,5.55
2023-06-11T18:57:19.274Z,3.38
2023-06-11T18:59:47.013Z,5.07
2023-06-11T19:02:13.862Z,3.53
2023-06-11T19:04:42.459Z,4.63
2023-06-11T19:07:09.776Z,3.97
2023-06-11T19:09:36.758Z,3.85
2023-06-11T19:12:04.031Z,3.40
2023-06-11T19:14:31.125Z,3.58
2023-06-11T19:16:58.058Z,4.93
2023-06-11T19:19:24.951Z,4.32
2023-06-11T19:21:51.876Z,4.75
2023-06-11T19:24:18.745Z,3.90
2023-06-11T19:26:45.734Z,3.33
2023-06-11T19:29:12.679Z,3.63
2023-06-11T19:31:39.979Z,3.40
2023-06-11T19:34:06.962Z,2.72
2023-06-11T19:36:33.966Z,3.25
2023-06-11T19:39:01.014Z,6.72
2023-06-11T19:41:30.235Z,4.63
2023-06-11T19:43:57.961Z,3.63
2023-06-11T19:46:27.977Z,4.40
2023-06-11T19:48:55.950Z,4.57
2023-06-11T19:51:22.727Z,4.18
2023-06-11T19:53:52.436Z,5.05
2023-06-11T19:56:20.216Z,5.35
2023-06-11T19:58:47.443Z,4.25
2023-06-11T20:01:17.849Z,3.97
2023-06-11T20:03:45.886Z,2.90
2023-06-11T20:06:13.673Z,3.47
2023-06-11T20:08:41.001Z,2.90
2023-06-11T20:11:12.119Z,3.15
2023-06-11T20:13:44.050Z,3.30
2023-06-11T20:16:11.955Z,3.55
2023-06-11T20:18:40.457Z,3.72
2023-06-11T20:21:07.686Z,3.65
2023-06-11T20:23:34.645Z,3.83
2023-06-11T20:26:01.923Z,4.20
2023-06-11T20:28:29.062Z,4.57
2023-06-11T20:30:56.749Z,3.63
2023-06-11T20:33:23.768Z,3.85
2023-06-11T20:35:51.460Z,5.18
2023-06-11T20:38:18.395Z,4.03
2023-06-11T20:40:46.352Z,3.80
2023-06-11T20:43:13.271Z,4.28
2023-06-11T20:45:42.456Z,4.38
2023-06-11T20:48:13.232Z,3.83
2023-06-11T20:50:40.808Z,3.60
2023-06-11T20:53:16.655Z,3.67
2023-06-11T20:55:55.182Z,4.05
2023-06-11T20:58:22.166Z,4.85
2023-06-11T21:00:49.042Z,4.88
2023-06-11T21:03:15.892Z,5.22
2023-06-11T21:05:42.844Z,4.15
2023-06-11T21:08:10.975Z,5.15
2023-06-11T21:10:37.838Z,4.90
2023-06-11T21:13:04.958Z,4.10
2023-06-11T21:15:31.889Z,3.83
2023-06-11T21:17:58.917Z,4.10
2023-06-11T21:20:26.064Z,5.50
2023-06-11T21:22:52.951Z,4.60
2023-06-11T21:25:19.744Z,3.45
2023-06-11T21:27:46.574Z,5.00
2023-06-11T21:30:13.877Z,4.72
2023-06-11T21:32:41.408Z,4.93
2023-06-11T21:35:09.208Z,4.22
2023-06-11T21:37:36.085Z,4.63
2023-06-11T21:40:03.457Z,4.68
2023-06-11T21:42:30.306Z,5.05
2023-06-11T21:44:57.189Z,4.10
2023-06-11T21:47:24.121Z,5.88
2023-06-11T21:49:51.268Z,4.55
2023-06-11T21:52:18.487Z,4.13
2023-06-11T21:54:46.110Z,4.15
2023-06-11T21:57:14.110Z,3.95
2023-06-11T21:59:42.099Z,4.30
2023-06-11T22:02:09.855Z,4.85
2023-06-11T22:04:37.198Z,4.30
2023-06-11T22:07:04.261Z,4.47
2023-06-11T22:09:31.615Z,6.00
2023-06-11T22:11:58.567Z,4.38
2023-06-11T22:14:26.965Z,5.70
2023-06-11T22:16:56.461Z,4.35
2023-06-11T22:19:25.097Z,5.15
2023-06-11T22:21:55.173Z,4.18
2023-06-11T22:24:22.350Z,4.95
2023-06-11T22:26:50.008Z,4.43
2023-06-11T22:29:16.878Z,3.88
2023-06-11T22:31:43.827Z,4.22
2023-06-11T22:34:10.935Z,5.97
2023-06-11T22:36:38.060Z,4.25
2023-06-11T22:39:04.910Z,4.93
2023-06-11T22:41:31.727Z,4.78
2023-06-11T22:43:58.566Z,5.05
2023-06-11T22:46:25.480Z,6.72
2023-06-11T22:48:59.123Z,4.65
2023-06-11T22:51:26.994Z,4.53
2023-06-11T22:53:53.860Z,5.00
2023-06-11T22:56:21.495Z,6.57
2023-06-11T22:58:48.485Z,4.82
2023-06-11T23:01:17.570Z,4.35
2023-06-11T23:03:44.596Z,4.90
2023-06-11T23:06:11.488Z,3.95
2023-06-11T23:08:40.765Z,4.45
2023-06-11T23:11:08.493Z,7.05
2023-06-11T23:13:35.451Z,4.93
2023-06-11T23:16:02.565Z,3.75
2023-06-11T23:18:31.416Z,4.43
2023-06-11T23:20:58.797Z,5.70
2023-06-11T23:23:26.567Z,4.47
2023-06-11T23:25:53.728Z,4.35
2023-06-11T23:28:23.777Z,3.70
2023-06-11T23:30:53.498Z,5.35
2023-06-11T23:33:21.415Z,4.53
2023-06-11T23:35:48.387Z,5.10
2023-06-11T23:38:17.032Z,5.13
2023-06-11T23:40:43.963Z,4.53
2023-06-11T23:43:10.991Z,4.60
2023-06-11T23:45:37.760Z,5.72
2023-06-11T23:48:04.731Z,6.05
2023-06-11T23:50:33.108Z,4.20
2023-06-11T23:52:59.950Z,6.65
2023-06-11T23:55:26.932Z,6.30
2023-06-11T23:58:17.595Z,4.25
